createdAt,value
2019-04-09T00:00:57.668Z,63.82
2019-04-09T00:03:26.059Z,63.68
2019-04-09T00:05:54.495Z,63.67
2019-04-09T00:08:23.125Z,63.87
2019-04-09T00:10:51.676Z,64.01
2019-04-09T00:13:21.208Z,64.24
2019-04-09T00:15:49.982Z,64.54
2019-04-09T00:18:18.973Z,64.82
2019-04-09T00:20:47.236Z,64.92
2019-04-09T00:23:15.895Z,64.95
2019-04-09T00:25:44.745Z,64.98
2019-04-09T00:28:13.171Z,65.05
2019-04-09T00:30:41.837Z,65.09
2019-04-09T00:33:10.157Z,65.12
2019-04-09T00:35:38.806Z,65.16
2019-04-09T00:38:07.192Z,65.21
2019-04-09T00:40:35.660Z,65.20
2019-04-09T00:43:03.944Z,65.32
2019-04-09T00:45:32.290Z,65.33
2019-04-09T00:48:00.563Z,65.54
2019-04-09T00:50:28.962Z,65.86
2019-04-09T00:52:57.359Z,66.11
2019-04-09T00:55:26.657Z,65.83
2019-04-09T00:57:55.884Z,65.84
2019-04-09T01:00:25.871Z,66.10
2019-04-09T01:02:54.151Z,66.17
2019-04-09T01:05:22.472Z,66.10
2019-04-09T01:07:50.938Z,66.24
2019-04-09T01:10:19.396Z,66.32
2019-04-09T01:12:48.542Z,66.79
2019-04-09T01:15:18.389Z,66.91
2019-04-09T01:17:47.849Z,67.00
2019-04-09T01:20:16.392Z,67.16
2019-04-09T01:22:45.504Z,67.19
2019-04-09T01:25:32.867Z,67.01
2019-04-09T01:28:02.123Z,66.91
2019-04-09T01:30:32.285Z,67.01
2019-04-09T01:33:11.977Z,67.01
2019-04-09T01:36:00.416Z,66.93
2019-04-09T01:38:36.389Z,66.93
2019-04-09T01:41:06.684Z,66.78
2019-04-09T01:43:40.873Z,66.86
2019-04-09T01:46:27.198Z,66.88
2019-04-09T01:49:00.879Z,66.98
2019-04-09T01:51:31.315Z,67.02
2019-04-09T01:54:07.482Z,67.07
2019-04-09T01:56:54.306Z,67.09
2019-04-09T01:59:24.487Z,67.17
2019-04-09T02:02:00.419Z,67.13
2019-04-09T02:04:46.689Z,67.10
2019-04-09T02:07:26.376Z,67.36
2019-04-09T02:09:59.309Z,67.64
2019-04-09T02:12:29.267Z,67.86
2019-04-09T02:15:02.957Z,67.82
2019-04-09T02:17:35.580Z,67.68
2019-04-09T02:20:13.206Z,67.55
2019-04-09T02:22:45.600Z,67.58
2019-04-09T02:25:21.544Z,67.74
2019-04-09T02:28:09.721Z,67.92
2019-04-09T02:30:57.546Z,67.95
2019-04-09T02:33:27.797Z,68.17
2019-04-09T02:35:57.865Z,68.20
2019-04-09T02:38:44.231Z,68.31
2019-04-09T02:41:30.281Z,68.30
2019-04-09T02:44:17.285Z,68.24
2019-04-09T02:46:50.943Z,68.19
2019-04-09T02:49:23.562Z,68.21
2019-04-09T02:51:59.744Z,68.25
2019-04-09T02:54:47.851Z,68.26
2019-04-09T02:57:17.903Z,68.30
2019-04-09T02:59:48.449Z,68.04
2019-04-09T03:02:19.453Z,68.03
2019-04-09T03:04:55.786Z,68.10
2019-04-09T03:07:37.881Z,67.90
2019-04-09T03:10:09.433Z,67.94
2019-04-09T03:12:49.656Z,68.13
2019-04-09T03:15:20.353Z,68.19
2019-04-09T03:17:50.728Z,68.43
2019-04-09T03:20:35.547Z,68.70
2019-04-09T03:23:06.659Z,68.75
2019-04-09T03:25:55.097Z,68.77
2019-04-09T03:28:34.929Z,68.86
2019-04-09T03:31:06.447Z,68.81
2019-04-09T03:33:39.409Z,68.63
2019-04-09T03:36:25.241Z,68.52
2019-04-09T03:39:05.033Z,68.54
2019-04-09T03:41:51.736Z,68.68
2019-04-09T03:44:38.082Z,68.60
2019-04-09T03:47:14.069Z,68.76
2019-04-09T03:50:00.958Z,68.77
2019-04-09T03:52:41.004Z,68.80
2019-04-09T03:55:27.552Z,68.92
2019-04-09T03:58:12.728Z,68.78
2019-04-09T04:00:32.617Z,68.77
2019-04-09T04:03:03.061Z,68.87
2019-04-09T04:05:33.308Z,69.01
2019-04-09T04:08:03.300Z,69.12
2019-04-09T04:10:50.033Z,69.18
2019-04-09T04:13:35.228Z,69.15
2019-04-09T04:16:06.062Z,69.01
2019-04-09T04:18:52.526Z,68.99
2019-04-09T04:21:29.783Z,69.04
2019-04-09T04:24:16.483Z,68.99
2019-04-09T04:27:05.222Z,68.96
2019-04-09T04:29:48.099Z,68.98
2019-04-09T04:32:18.117Z,68.97
2019-04-09T04:34:48.058Z,68.91
2019-04-09T04:37:24.683Z,68.83
2019-04-09T04:40:10.554Z,68.79
2019-04-09T04:42:41.707Z,68.80
2019-04-09T04:45:17.900Z,68.90
2019-04-09T04:47:59.873Z,69.03
2019-04-09T04:50:39.626Z,69.30
2019-04-09T04:53:10.511Z,69.48
2019-04-09T04:55:54.238Z,69.80
2019-04-09T04:58:45.452Z,70.06
2019-04-09T05:01:28.387Z,70.29
2019-04-09T05:04:18.204Z,70.29
2019-04-09T05:06:49.464Z,70.24
2019-04-09T05:09:37.011Z,70.04
2019-04-09T05:12:22.115Z,69.94
2019-04-09T05:14:52.948Z,69.88
2019-04-09T05:17:26.769Z,69.88
2019-04-09T05:20:00.485Z,69.98
2019-04-09T05:22:33.984Z,70.12
2019-04-09T05:25:09.933Z,70.27
2019-04-09T05:27:44.466Z,70.21
2019-04-09T05:30:33.796Z,70.13
2019-04-09T05:33:10.149Z,70.14
2019-04-09T05:35:56.560Z,70.07
2019-04-09T05:38:29.401Z,70.25
2019-04-09T05:41:08.235Z,70.29
2019-04-09T05:43:38.571Z,70.41
2019-04-09T05:46:08.552Z,70.53
2019-04-09T05:48:44.654Z,70.73
2019-04-09T05:51:30.016Z,70.94
2019-04-09T05:54:00.831Z,71.07
2019-04-09T05:56:33.558Z,71.32
2019-04-09T05:59:09.772Z,71.07
2019-04-09T06:01:38.650Z,70.93
2019-04-09T06:04:09.579Z,70.75
2019-04-09T06:06:42.325Z,70.57
2019-04-09T06:09:18.151Z,70.37
2019-04-09T06:11:46.448Z,70.20
2019-04-09T06:14:14.783Z,70.19
2019-04-09T06:16:43.319Z,70.40
2019-04-09T06:19:12.625Z,70.63
2019-04-09T06:21:43.697Z,70.78
2019-04-09T06:24:12.262Z,71.19
2019-04-09T06:26:40.835Z,71.56
2019-04-09T06:29:16.108Z,71.78
2019-04-09T06:31:40.365Z,71.73
2019-04-09T06:34:26.623Z,71.94
2019-04-09T06:36:59.767Z,71.91
2019-04-09T06:39:35.584Z,72.09
2019-04-09T06:42:06.459Z,72.34
2019-04-09T06:44:37.149Z,72.50
2019-04-09T06:47:10.638Z,72.83
2019-04-09T06:49:46.606Z,72.50
2019-04-09T06:52:32.976Z,72.58
2019-04-09T06:55:10.446Z,72.52
2019-04-09T06:57:43.714Z,72.27
2019-04-09T07:00:22.694Z,72.22
2019-04-09T07:03:00.906Z,72.13
2019-04-09T07:05:31.096Z,72.17
2019-04-09T07:08:01.056Z,72.43
2019-04-09T07:10:34.168Z,72.58
2019-04-09T07:13:06.769Z,73.08
2019-04-09T07:15:39.892Z,73.53
2019-04-09T07:18:27.198Z,73.65
2019-04-09T07:20:57.325Z,73.67
2019-04-09T07:23:44.020Z,73.29
2019-04-09T07:26:16.520Z,73.69
2019-04-09T07:28:58.155Z,73.52
2019-04-09T07:31:33.254Z,73.24
2019-04-09T07:34:20.650Z,73.39
2019-04-09T07:36:54.140Z,73.22
2019-04-09T07:39:30.032Z,72.49
2019-04-09T07:42:02.701Z,72.28
2019-04-09T07:44:51.997Z,72.26
2019-04-09T07:47:25.102Z,72.12
2019-04-09T07:50:08.051Z,72.10
2019-04-09T07:52:56.831Z,72.23
2019-04-09T07:55:42.699Z,72.10
2019-04-09T07:58:12.896Z,72.05
2019-04-09T08:00:45.835Z,71.81
2019-04-09T08:03:14.561Z,71.76
2019-04-09T08:05:51.845Z,71.82
2019-04-09T08:08:21.951Z,72.10
2019-04-09T08:10:56.851Z,72.04
2019-04-09T08:13:26.403Z,71.89
2019-04-09T08:15:56.469Z,72.19
2019-04-09T08:18:27.167Z,72.37
2019-04-09T08:21:04.179Z,72.26
2019-04-09T08:23:34.193Z,72.20
2019-04-09T08:26:05.263Z,72.00
2019-04-09T08:28:35.561Z,71.84
2019-04-09T08:31:20.557Z,71.68
2019-04-09T08:34:06.348Z,71.31
2019-04-09T08:36:40.000Z,71.15
2019-04-09T08:39:16.752Z,70.96
2019-04-09T08:41:54.117Z,70.84
2019-04-09T08:44:37.485Z,70.70
2019-04-09T08:47:14.741Z,70.54
2019-04-09T08:50:01.274Z,70.56
2019-04-09T08:52:35.078Z,70.18
2019-04-09T08:55:07.467Z,70.04
2019-04-09T08:57:48.269Z,69.61
2019-04-09T09:01:21.166Z,69.44
2019-04-09T09:03:20.694Z,69.54
2019-04-09T09:05:56.665Z,69.48
2019-04-09T09:08:25.324Z,69.06
2019-04-09T09:10:58.052Z,68.71
2019-04-09T09:13:31.714Z,68.61
2019-04-09T09:16:01.809Z,68.68
2019-04-09T09:18:53.036Z,68.59
2019-04-09T09:21:32.307Z,68.62
2019-04-09T09:23:59.418Z,68.76
2019-04-09T09:26:30.056Z,68.91
2019-04-09T09:29:06.976Z,68.91
2019-04-09T09:31:46.890Z,68.74
2019-04-09T09:34:24.350Z,68.35
2019-04-09T09:37:15.677Z,68.11
2019-04-09T09:39:53.444Z,68.37
2019-04-09T09:42:23.878Z,68.46
2019-04-09T09:45:12.447Z,68.69
2019-04-09T09:47:47.770Z,68.62
2019-04-09T09:50:38.861Z,67.52
2019-04-09T09:53:07.868Z,67.45
2019-04-09T09:55:41.117Z,67.94
2019-04-09T09:58:22.409Z,68.90
2019-04-09T10:01:08.099Z,68.91
2019-04-09T10:03:49.184Z,69.04
2019-04-09T10:06:20.290Z,69.16
2019-04-09T10:09:01.152Z,69.34
2019-04-09T10:11:36.224Z,69.08
2019-04-09T10:14:05.840Z,68.37
2019-04-09T10:16:54.041Z,68.60
2019-04-09T10:19:42.465Z,68.88
2019-04-09T10:22:12.421Z,68.94
2019-04-09T10:24:46.617Z,69.26
2019-04-09T10:27:33.339Z,69.27
2019-04-09T10:30:10.700Z,69.87
2019-04-09T10:32:43.405Z,70.11
2019-04-09T10:35:23.446Z,69.96
2019-04-09T10:37:53.803Z,70.01
2019-04-09T10:40:40.658Z,70.35
2019-04-09T10:43:12.843Z,70.36
2019-04-09T10:45:52.307Z,70.61
2019-04-09T10:48:37.460Z,70.58
2019-04-09T10:51:11.541Z,70.50
2019-04-09T10:53:52.237Z,70.46
2019-04-09T10:56:38.736Z,70.08
2019-04-09T10:59:11.625Z,70.07
2019-04-09T11:01:57.250Z,70.00
2019-04-09T11:04:27.599Z,69.57
2019-04-09T11:07:05.022Z,69.65
2019-04-09T11:09:52.618Z,70.08
2019-04-09T11:12:26.186Z,70.55
2019-04-09T11:15:15.650Z,70.31
2019-04-09T11:17:57.996Z,70.12
2019-04-09T11:20:37.180Z,69.70
2019-04-09T11:23:10.628Z,69.90
2019-04-09T11:25:44.519Z,69.92
2019-04-09T11:28:32.080Z,69.81
2019-04-09T11:31:18.102Z,69.47
2019-04-09T11:33:51.006Z,69.43
2019-04-09T11:36:27.307Z,69.16
2019-04-09T11:39:03.818Z,69.34
2019-04-09T11:41:50.857Z,69.59
2019-04-09T11:44:27.072Z,69.34
2019-04-09T11:46:57.063Z,69.45
2019-04-09T11:49:44.826Z,69.35
2019-04-09T11:52:31.214Z,69.35
2019-04-09T11:55:16.854Z,69.53
2019-04-09T11:58:03.699Z,69.92
2019-04-09T12:00:50.903Z,70.25
2019-04-09T12:03:36.265Z,69.84
2019-04-09T12:06:18.528Z,70.13
2019-04-09T12:08:55.041Z,70.13
2019-04-09T12:11:25.000Z,70.27
2019-04-09T12:14:00.469Z,70.31
2019-04-09T12:16:46.613Z,70.52
2019-04-09T12:19:34.806Z,70.14
2019-04-09T12:22:05.775Z,70.39
2019-04-09T12:24:41.678Z,70.37
2019-04-09T12:27:15.735Z,70.61
2019-04-09T12:30:01.895Z,70.60
2019-04-09T12:32:41.027Z,70.35
2019-04-09T12:35:11.109Z,70.32
2019-04-09T12:37:57.720Z,70.32
2019-04-09T12:40:30.820Z,70.04
2019-04-09T12:43:07.090Z,69.69
2019-04-09T12:45:37.137Z,70.11
2019-04-09T12:48:07.099Z,69.91
2019-04-09T12:50:54.285Z,70.22
2019-04-09T12:53:24.579Z,70.50
2019-04-09T12:55:58.357Z,70.26
2019-04-09T12:58:28.476Z,70.38
2019-04-09T13:01:02.654Z,70.87
2019-04-09T13:03:34.019Z,70.81
2019-04-09T13:06:09.509Z,70.97
2019-04-09T13:08:56.039Z,70.51
2019-04-09T13:11:26.566Z,70.22
2019-04-09T13:14:13.227Z,69.97
2019-04-09T13:16:59.501Z,69.64
2019-04-09T13:19:45.989Z,69.32
2019-04-09T13:22:22.033Z,69.41
2019-04-09T13:25:07.141Z,68.98
2019-04-09T13:27:50.678Z,69.20
2019-04-09T13:30:27.445Z,69.35
2019-04-09T13:33:15.041Z,68.71
2019-04-09T13:35:48.306Z,68.50
2019-04-09T13:38:25.034Z,68.62
2019-04-09T13:40:55.778Z,68.93
2019-04-09T13:43:31.488Z,69.08
2019-04-09T13:46:16.975Z,69.27
2019-04-09T13:48:58.870Z,68.54
2019-04-09T13:51:44.928Z,68.54
2019-04-09T13:54:13.440Z,68.79
2019-04-09T13:56:41.851Z,68.72
2019-04-09T13:59:10.221Z,68.99
2019-04-09T14:01:38.799Z,68.57
2019-04-09T14:04:09.244Z,67.96
2019-04-09T14:06:37.602Z,67.35
2019-04-09T14:09:07.871Z,66.83
2019-04-09T14:11:36.673Z,66.25
2019-04-09T14:14:05.059Z,65.70
2019-04-09T14:16:33.515Z,65.35
2019-04-09T14:19:01.997Z,65.43
2019-04-09T14:21:30.764Z,65.50
2019-04-09T14:23:59.289Z,65.36
2019-04-09T14:26:27.707Z,65.32
2019-04-09T14:28:56.371Z,65.50
2019-04-09T14:31:24.901Z,65.73
2019-04-09T14:33:54.167Z,65.50
2019-04-09T14:36:22.923Z,65.52
2019-04-09T14:38:53.039Z,65.50
2019-04-09T14:41:21.545Z,65.06
2019-04-09T14:43:50.556Z,65.29
2019-04-09T14:46:19.562Z,65.03
2019-04-09T14:48:48.166Z,64.77
2019-04-09T14:51:16.463Z,64.25
2019-04-09T14:53:45.384Z,64.02
2019-04-09T14:56:13.893Z,63.72
2019-04-09T14:58:42.254Z,63.36
2019-04-09T15:01:10.582Z,63.32
2019-04-09T15:03:39.097Z,63.35
2019-04-09T15:06:08.011Z,63.27
2019-04-09T15:08:36.470Z,62.94
2019-04-09T15:11:05.215Z,62.77
2019-04-09T15:13:34.674Z,62.97
2019-04-09T15:16:03.358Z,62.66
2019-04-09T15:18:31.882Z,62.66
2019-04-09T15:21:14.844Z,62.39
2019-04-09T15:23:43.691Z,61.95
2019-04-09T15:26:12.347Z,61.69
2019-04-09T15:28:40.668Z,61.86
2019-04-09T15:31:09.252Z,61.92
2019-04-09T15:33:38.755Z,61.96
2019-04-09T15:36:07.305Z,62.13
2019-04-09T15:38:36.361Z,62.08
2019-04-09T15:41:04.972Z,62.12
2019-04-09T15:43:33.275Z,62.26
2019-04-09T15:46:02.377Z,62.49
2019-04-09T15:48:31.141Z,62.56
2019-04-09T15:51:01.233Z,62.57
2019-04-09T15:53:35.505Z,62.65
2019-04-09T15:56:00.071Z,62.31
2019-04-09T15:58:28.581Z,62.10
2019-04-09T16:00:57.118Z,62.25
2019-04-09T16:03:33.191Z,62.29
2019-04-09T16:05:59.082Z,62.47
2019-04-09T16:08:28.123Z,62.73
2019-04-09T16:10:57.714Z,62.91
2019-04-09T16:13:26.864Z,62.89
2019-04-09T16:15:58.046Z,63.12
2019-04-09T16:18:26.403Z,63.27
2019-04-09T16:20:54.971Z,63.30
2019-04-09T16:23:23.313Z,63.45
2019-04-09T16:25:52.181Z,63.53
2019-04-09T16:28:21.555Z,63.38
2019-04-09T16:30:50.461Z,62.99
2019-04-09T16:33:22.431Z,63.04
2019-04-09T16:35:49.744Z,62.98
2019-04-09T16:38:18.522Z,63.12
2019-04-09T16:40:47.537Z,63.28
2019-04-09T16:43:16.563Z,63.37
2019-04-09T16:45:46.120Z,63.56
2019-04-09T16:48:14.929Z,63.69
2019-04-09T16:50:44.013Z,63.71
2019-04-09T16:53:13.208Z,63.93
2019-04-09T16:55:42.944Z,63.88
2019-04-09T16:58:11.498Z,63.94
2019-04-09T17:00:40.975Z,63.95
2019-04-09T17:03:09.552Z,63.92
2019-04-09T17:05:38.187Z,63.94
2019-04-09T17:08:07.285Z,64.17
2019-04-09T17:10:36.075Z,64.25
2019-04-09T17:13:04.691Z,64.45
2019-04-09T17:15:33.837Z,64.64
2019-04-09T17:18:02.290Z,64.71
2019-04-09T17:20:31.050Z,64.82
2019-04-09T17:22:59.617Z,65.01
2019-04-09T17:25:29.569Z,65.10
2019-04-09T17:27:58.357Z,65.40
2019-04-09T17:30:27.998Z,65.59
2019-04-09T17:32:56.648Z,65.88
2019-04-09T17:35:25.198Z,65.88
2019-04-09T17:37:53.643Z,65.95
2019-04-09T17:40:24.217Z,66.04
2019-04-09T17:42:55.368Z,66.21
2019-04-09T17:45:26.335Z,66.11
2019-04-09T17:48:03.815Z,66.14
2019-04-09T17:50:31.515Z,66.16
2019-04-09T17:53:00.133Z,66.06
2019-04-09T17:55:28.655Z,65.96
2019-04-09T17:57:58.205Z,66.03
2019-04-09T18:00:26.739Z,65.91
2019-04-09T18:02:55.146Z,65.78
2019-04-09T18:05:23.752Z,65.73
2019-04-09T18:07:53.081Z,65.65
2019-04-09T18:10:22.311Z,65.75
2019-04-09T18:12:51.523Z,65.80
2019-04-09T18:15:21.067Z,65.81
2019-04-09T18:17:49.558Z,65.75
2019-04-09T18:20:19.215Z,65.69
2019-04-09T18:22:47.884Z,65.44
2019-04-09T18:25:16.318Z,65.54
2019-04-09T18:27:45.596Z,65.63
2019-04-09T18:30:14.593Z,65.56
2019-04-09T18:32:43.535Z,65.70
2019-04-09T18:35:13.380Z,65.77
2019-04-09T18:37:42.446Z,65.57
2019-04-09T18:40:12.400Z,65.42
2019-04-09T18:42:41.511Z,65.28
2019-04-09T18:45:10.300Z,65.27
2019-04-09T18:47:40.078Z,65.36
2019-04-09T18:50:08.742Z,65.37
2019-04-09T18:52:38.383Z,65.37
2019-04-09T18:55:09.246Z,65.34
2019-04-09T18:57:39.112Z,65.36
2019-04-09T19:00:09.935Z,65.51
2019-04-09T19:02:38.885Z,65.58
2019-04-09T19:05:12.863Z,65.77
2019-04-09T19:07:39.328Z,65.93
2019-04-09T19:10:08.432Z,66.06
2019-04-09T19:12:36.878Z,66.23
2019-04-09T19:15:05.985Z,66.40
2019-04-09T19:17:35.096Z,66.48
2019-04-09T19:20:05.700Z,66.53
2019-04-09T19:22:34.038Z,66.52
2019-04-09T19:25:02.557Z,66.76
2019-04-09T19:27:31.697Z,66.89
2019-04-09T19:30:00.126Z,67.03
2019-04-09T19:32:29.558Z,67.07
2019-04-09T19:34:58.280Z,66.83
2019-04-09T19:37:27.555Z,66.90
2019-04-09T19:40:14.348Z,66.86
2019-04-09T19:42:43.874Z,66.77
2019-04-09T19:45:13.175Z,66.92
2019-04-09T19:47:41.781Z,66.96
2019-04-09T19:50:11.877Z,67.03
2019-04-09T19:52:40.303Z,67.00
2019-04-09T19:55:09.841Z,67.14
2019-04-09T19:57:38.543Z,67.21
2019-04-09T20:00:08.876Z,67.22
2019-04-09T20:02:37.487Z,67.24
2019-04-09T20:05:07.931Z,67.33
2019-04-09T20:07:36.533Z,67.34
2019-04-09T20:10:08.510Z,67.60
2019-04-09T20:12:37.531Z,67.53
2019-04-09T20:15:06.438Z,67.81
2019-04-09T20:17:35.202Z,68.03
2019-04-09T20:20:05.072Z,67.97
2019-04-09T20:22:33.393Z,67.89
2019-04-09T20:25:02.957Z,68.46
2019-04-09T20:27:32.847Z,68.33
2019-04-09T20:30:01.727Z,68.38
2019-04-09T20:32:30.691Z,68.67
2019-04-09T20:35:06.108Z,68.66
2019-04-09T20:37:29.424Z,68.62
2019-04-09T20:39:57.705Z,68.66
2019-04-09T20:42:26.601Z,68.76
2019-04-09T20:44:55.122Z,68.98
2019-04-09T20:47:23.468Z,68.99
2019-04-09T20:49:52.758Z,68.99
2019-04-09T20:52:21.643Z,69.07
2019-04-09T20:54:51.692Z,69.05
2019-04-09T20:57:20.077Z,69.09
2019-04-09T21:00:06.123Z,69.28
2019-04-09T21:02:28.497Z,69.46
2019-04-09T21:04:57.811Z,69.34
2019-04-09T21:07:26.437Z,69.26
2019-04-09T21:09:54.958Z,69.39
2019-04-09T21:12:23.509Z,69.44
2019-04-09T21:14:51.883Z,69.37
2019-04-09T21:17:20.397Z,69.31
2019-04-09T21:19:48.698Z,69.39
2019-04-09T21:22:17.035Z,69.54
2019-04-09T21:24:45.936Z,69.56
2019-04-09T21:27:16.608Z,69.59
2019-04-09T21:29:44.474Z,69.56
2019-04-09T21:32:13.761Z,69.73
2019-04-09T21:34:42.862Z,69.74
2019-04-09T21:37:11.572Z,70.06
2019-04-09T21:39:41.265Z,70.11
2019-04-09T21:42:09.765Z,70.18
2019-04-09T21:44:38.699Z,70.15
2019-04-09T21:47:07.957Z,70.17
2019-04-09T21:49:36.727Z,70.23
2019-04-09T21:52:05.125Z,70.19
2019-04-09T21:54:33.732Z,70.15
2019-04-09T21:57:03.034Z,70.13
2019-04-09T21:59:31.536Z,70.01
2019-04-09T22:02:00.342Z,70.13
2019-04-09T22:04:29.618Z,70.36
2019-04-09T22:06:58.811Z,70.39
2019-04-09T22:09:27.274Z,70.40
2019-04-09T22:11:55.564Z,70.40
2019-04-09T22:14:23.927Z,70.36
2019-04-09T22:16:52.248Z,70.28
2019-04-09T22:19:20.808Z,70.26
2019-04-09T22:21:50.311Z,70.20
2019-04-09T22:24:19.336Z,70.25
2019-04-09T22:26:47.867Z,70.55
2019-04-09T22:29:16.836Z,70.61
2019-04-09T22:31:45.557Z,70.67
2019-04-09T22:34:15.573Z,70.75
2019-04-09T22:36:45.086Z,70.76
2019-04-09T22:39:14.055Z,70.93
2019-04-09T22:41:43.073Z,70.95
2019-04-09T22:44:12.190Z,71.08
2019-04-09T22:46:40.588Z,71.05
2019-04-09T22:49:08.938Z,71.04
2019-04-09T22:51:37.358Z,71.20
2019-04-09T22:54:05.924Z,71.15
2019-04-09T22:56:36.130Z,71.28
2019-04-09T22:59:05.595Z,71.23
2019-04-09T23:01:36.200Z,71.28
2019-04-09T23:04:11.855Z,71.26
2019-04-09T23:07:00.867Z,71.27
2019-04-09T23:09:47.091Z,71.23
2019-04-09T23:12:17.362Z,71.35
2019-04-09T23:14:46.385Z,71.42
2019-04-09T23:17:15.494Z,71.37
2019-04-09T23:19:44.059Z,71.44
2019-04-09T23:22:13.988Z,71.54
2019-04-09T23:24:42.357Z,71.67
2019-04-09T23:27:10.758Z,71.79
2019-04-09T23:29:39.373Z,71.75
2019-04-09T23:32:07.650Z,71.70
2019-04-09T23:34:36.587Z,71.89
2019-04-09T23:37:07.524Z,71.86
2019-04-09T23:39:35.136Z,71.79
2019-04-09T23:42:04.375Z,71.76
2019-04-09T23:44:37.455Z,71.92
2019-04-09T23:47:03.717Z,71.91
2019-04-09T23:49:32.162Z,71.94
2019-04-09T23:52:00.499Z,72.03
2019-04-09T23:54:29.708Z,72.13
2019-04-09T23:56:58.203Z,72.42
2019-04-09T23:59:26.515Z,72.67
